RJTL(METAR)
02/18 15:00
METAR RJTL 180600Z VRB04KT 9999 FEW030 15/M07 Q1022 RMK 1CU030
A3020=
戻る
トップページへ戻る
IMOC Co,.Ltd.